Time;durP1;ratioP1;P1;durP2;ratioP2;P2;SDS_P1;SDS_P2;PMS_P1;PMS_P2;Temp;Humidity;BMP_temperature;BMP_pressure;BME280_temperature;BME280_humidity;BME280_pressure;Samples;Min_cycle;Max_cycle;Signal;HPM_P1;HPM_P2
2023/05/04 04:01:11;;;;;;;0.60;0.10;;;10.70;94.70;;;;;;5826903;22;20512;-76
2023/05/04 04:03:39;;;;;;;0.60;0.30;;;10.70;95.30;;;;;;5029261;28;20796;-75
2023/05/04 04:06:09;;;;;;;0.60;0.10;;;10.60;95.80;;;;;;5026358;28;20488;-75
2023/05/04 04:08:37;;;;;;;1.83;1.73;;;10.50;95.80;;;;;;5033806;28;20449;-76
2023/05/04 04:11:05;;;;;;;0.60;0.10;;;10.50;96.10;;;;;;5034223;28;20452;-74
2023/05/04 04:13:33;;;;;;;0.60;0.10;;;10.50;97.00;;;;;;5036393;28;20444;-76
2023/05/04 04:16:00;;;;;;;0.93;0.83;;;10.50;96.80;;;;;;5048692;22;20981;-71
2023/05/04 04:18:30;;;;;;;0.60;0.10;;;10.50;97.10;;;;;;5027402;28;20514;-71
2023/05/04 04:20:58;;;;;;;0.60;0.10;;;10.50;99.90;;;;;;5024309;28;20846;-73
2023/05/04 04:23:26;;;;;;;0.60;0.20;;;10.60;97.40;;;;;;5034014;28;20444;-72
2023/05/04 04:25:54;;;;;;;0.60;0.10;;;10.60;97.40;;;;;;5030906;28;20495;-72
2023/05/04 04:28:21;;;;;;;0.60;0.10;;;10.60;99.90;;;;;;5028261;28;20472;-72
2023/05/04 04:30:49;;;;;;;0.60;0.10;;;10.60;99.90;;;;;;5014533;28;20811;-71
2023/05/04 04:33:17;;;;;;;0.60;0.10;;;10.70;99.90;;;;;;5029405;28;20441;-71
2023/05/04 04:35:47;;;;;;;0.60;0.10;;;10.70;98.30;;;;;;5034031;28;20477;-72
2023/05/04 04:38:14;;;;;;;1.60;1.50;;;10.70;99.90;;;;;;5034629;28;20511;-73
2023/05/04 04:40:42;;;;;;;0.60;0.10;;;10.70;99.90;;;;;;5033373;28;21000;-72
2023/05/04 04:43:10;;;;;;;0.60;0.10;;;10.70;98.00;;;;;;5034309;28;20443;-71
2023/05/04 04:45:40;;;;;;;0.60;0.10;;;10.70;98.70;;;;;;5033909;28;20467;-70
2023/05/04 04:48:08;;;;;;;0.60;0.20;;;10.70;98.80;;;;;;5034222;28;20510;-72
2023/05/04 04:50:38;;;;;;;0.60;0.10;;;10.80;99.90;;;;;;5034105;28;20448;-70
2023/05/04 04:53:08;;;;;;;0.60;0.10;;;10.80;98.70;;;;;;5020949;28;20444;-72
2023/05/04 04:55:36;;;;;;;0.60;0.10;;;10.90;98.70;;;;;;5028370;28;20781;-71
2023/05/04 04:58:04;;;;;;;0.60;0.20;;;10.90;99.90;;;;;;5033850;28;20453;-72
2023/05/04 05:00:32;;;;;;;0.60;0.20;;;10.80;98.70;;;;;;5031738;28;20588;-71
2023/05/04 05:03:00;;;;;;;0.60;0.10;;;10.80;98.40;;;;;;5029461;28;20459;-70
2023/05/04 05:05:28;;;;;;;0.60;0.10;;;10.80;98.60;;;;;;5027362;28;20464;-72
2023/05/04 05:07:58;;;;;;;0.60;0.10;;;10.80;98.70;;;;;;5027779;28;20555;-72
2023/05/04 05:10:28;;;;;;;0.60;0.10;;;10.80;99.90;;;;;;5034023;28;20875;-72
2023/05/04 05:12:55;;;;;;;0.60;0.10;;;10.80;98.90;;;;;;5020122;28;20452;-72
2023/05/04 05:15:23;;;;;;;0.60;0.30;;;10.90;98.90;;;;;;5014103;28;20483;-73
2023/05/04 05:17:51;;;;;;;0.80;0.57;;;10.90;99.90;;;;;;5033935;28;20443;-71
2023/05/04 05:20:20;;;;;;;1.63;1.53;;;10.90;99.10;;;;;;5033531;28;20476;-72
2023/05/04 05:22:48;;;;;;;0.60;0.10;;;10.90;99.10;;;;;;5032925;28;20956;-72
2023/05/04 05:25:15;;;;;;;0.60;0.10;;;11.00;98.80;;;;;;5033075;28;20538;-72
2023/05/04 05:27:45;;;;;;;1.90;1.53;;;11.00;99.90;;;;;;5032250;28;20461;-70
2023/05/04 05:30:13;;;;;;;0.60;0.10;;;11.00;99.40;;;;;;5033630;28;20824;-72
2023/05/04 05:32:41;;;;;;;0.80;0.20;;;10.90;99.90;;;;;;5033971;28;20445;-70
2023/05/04 05:35:11;;;;;;;0.70;0.67;;;11.10;98.90;;;;;;5034785;28;20494;-72
2023/05/04 05:37:39;;;;;;;1.13;0.30;;;11.10;99.90;;;;;;5018856;28;20506;-72
2023/05/04 05:40:08;;;;;;;0.80;0.40;;;11.10;99.90;;;;;;5037953;28;20441;-73
2023/05/04 05:42:36;;;;;;;0.60;0.30;;;11.00;99.40;;;;;;5051020;28;20511;-70
2023/05/04 05:45:06;;;;;;;0.60;0.10;;;11.10;99.70;;;;;;5054099;28;20474;-70
2023/05/04 05:47:35;;;;;;;0.60;0.10;;;11.20;99.70;;;;;;5037057;28;20453;-73
2023/05/04 05:50:03;;;;;;;0.60;0.20;;;11.20;99.40;;;;;;5033470;28;20471;-72
2023/05/04 05:52:31;;;;;;;0.60;0.17;;;11.20;99.90;;;;;;5036059;28;20442;-70
2023/05/04 05:55:00;;;;;;;0.60;0.10;;;11.20;99.10;;;;;;5042638;28;20467;-70
2023/05/04 05:57:29;;;;;;;0.60;0.10;;;11.30;99.90;;;;;;5040564;28;20962;-72
2023/05/04 05:59:57;;;;;;;0.60;0.10;;;11.30;99.90;;;;;;5042409;28;20449;-70
2023/05/04 06:02:27;;;;;;;0.60;0.20;;;11.40;99.30;;;;;;5041978;28;21589;-71
2023/05/04 06:04:55;;;;;;;0.60;0.10;;;;;;;;;;5040343;28;20455;-71
2023/05/04 06:07:23;;;;;;;0.60;0.10;;;11.50;99.20;;;;;;5038842;28;20444;-73
2023/05/04 06:09:52;;;;;;;0.60;0.10;;;11.50;99.90;;;;;;5033803;28;20451;-70
2023/05/04 06:12:20;;;;;;;2.53;1.60;;;11.60;99.60;;;;;;5042566;28;20444;-71
2023/05/04 06:14:48;;;;;;;0.60;0.10;;;11.60;99.90;;;;;;5040721;28;20983;-71
2023/05/04 06:17:16;;;;;;;0.60;0.10;;;11.60;99.90;;;;;;5033434;28;20939;-72
2023/05/04 06:19:46;;;;;;;0.60;0.20;;;11.70;99.90;;;;;;5033258;28;20887;-71
2023/05/04 06:22:17;;;;;;;0.60;0.20;;;11.70;99.90;;;;;;5032824;28;20480;-71
2023/05/04 06:24:45;;;;;;;0.60;0.10;;;11.80;99.90;;;;;;5033363;28;20473;-70
2023/05/04 06:27:13;;;;;;;0.60;0.10;;;11.90;99.90;;;;;;5035288;28;20464;-72
2023/05/04 06:29:41;;;;;;;0.60;0.10;;;11.90;99.90;;;;;;5037327;28;20488;-72
2023/05/04 06:32:12;;;;;;;0.60;0.10;;;12.00;99.90;;;;;;5033330;28;20494;-74
2023/05/04 06:34:41;;;;;;;0.60;0.10;;;12.10;98.70;;;;;;5034363;28;20560;-72
2023/05/04 06:37:11;;;;;;;0.60;0.10;;;12.10;99.90;;;;;;5036920;28;20535;-72
2023/05/04 06:39:42;;;;;;;0.60;0.10;;;12.30;98.20;;;;;;5027659;28;20464;-72
2023/05/04 06:42:11;;;;;;;0.60;0.20;;;12.40;98.00;;;;;;5031342;28;20473;-73
2023/05/04 06:44:39;;;;;;;0.60;0.10;;;12.40;97.40;;;;;;5045562;28;21256;-71
2023/05/04 06:47:06;;;;;;;0.60;0.20;;;12.40;99.90;;;;;;5045181;28;20465;-73
2023/05/04 06:49:35;;;;;;;25.03;9.60;;;12.50;97.80;;;;;;5039932;28;20442;-73
2023/05/04 06:52:03;;;;;;;0.60;0.10;;;12.50;99.90;;;;;;5037587;28;20445;-72
2023/05/04 06:54:32;;;;;;;0.60;0.10;;;12.60;99.30;;;;;;5034521;28;20478;-73
2023/05/04 06:57:03;;;;;;;0.77;0.77;;;12.60;99.50;;;;;;5035159;28;20452;-72
2023/05/04 06:59:31;;;;;;;0.60;0.10;;;12.70;99.90;;;;;;5032336;28;20480;-72
2023/05/04 07:01:58;;;;;;;0.60;0.10;;;12.80;99.90;;;;;;5033196;28;20504;-73
2023/05/04 07:04:26;;;;;;;0.70;0.30;;;12.90;98.10;;;;;;5034975;28;20477;-71
2023/05/04 07:06:54;;;;;;;0.60;0.10;;;13.00;97.80;;;;;;5032006;28;20866;-71
2023/05/04 07:09:22;;;;;;;3.13;0.83;;;13.00;99.90;;;;;;5032061;28;20940;-71
2023/05/04 07:11:51;;;;;;;0.60;0.47;;;13.00;99.90;;;;;;5032742;28;20451;-71
2023/05/04 07:14:20;;;;;;;0.60;0.10;;;13.00;96.90;;;;;;5027070;28;20513;-73
2023/05/04 07:16:48;;;;;;;0.60;0.10;;;13.10;97.70;;;;;;5028998;28;20453;-72
2023/05/04 07:19:16;;;;;;;0.60;0.10;;;13.10;97.80;;;;;;5012832;28;20977;-71
2023/05/04 07:21:44;;;;;;;0.60;0.20;;;13.10;97.90;;;;;;5012557;28;20866;-73
2023/05/04 07:24:12;;;;;;;0.60;0.10;;;13.20;98.20;;;;;;5015427;28;20451;-72
2023/05/04 07:26:39;;;;;;;0.60;0.10;;;13.20;98.10;;;;;;5035049;28;20455;-71
2023/05/04 07:29:10;;;;;;;0.60;0.10;;;13.30;97.30;;;;;;5037728;28;20457;-72
2023/05/04 07:31:38;;;;;;;0.60;0.20;;;13.30;97.30;;;;;;5035188;28;20459;-70
2023/05/04 07:34:06;;;;;;;0.77;0.30;;;13.40;96.10;;;;;;5030795;28;20460;-72
2023/05/04 07:36:35;;;;;;;0.60;0.10;;;13.40;99.90;;;;;;5041187;28;20512;-73
2023/05/04 07:39:03;;;;;;;2.83;1.33;;;13.40;99.90;;;;;;5035192;28;20550;-73
2023/05/04 07:41:31;;;;;;;0.60;0.10;;;13.30;97.00;;;;;;5034852;28;20504;-73
2023/05/04 07:44:16;;;;;;;0.60;0.10;;;13.50;98.20;;;;;;5036683;28;20447;-76
2023/05/04 07:46:54;;;;;;;0.60;0.10;;;;;;;;;;5031239;28;20459;-75
2023/05/04 07:49:29;;;;;;;0.60;0.10;;;;;;;;;;5038704;28;20985;-74
2023/05/04 07:51:59;;;;;;;0.60;0.10;;;;;;;;;;5050473;28;20454;-74
2023/05/04 07:54:36;;;;;;;0.60;0.10;;;;;;;;;;5053596;28;20508;-73
2023/05/04 07:57:05;;;;;;;0.60;0.10;;;;;;;;;;5043104;28;20604;-73
2023/05/04 07:59:34;;;;;;;0.60;0.20;;;14.10;99.90;;;;;;5035470;28;20447;-71
2023/05/04 08:02:15;;;;;;;0.60;0.30;;;;;;;;;;5035872;28;20477;-74
2023/05/04 08:04:48;;;;;;;0.60;0.10;;;14.20;99.90;;;;;;5035425;28;20470;-72
2023/05/04 08:07:23;;;;;;;0.60;0.10;;;;;;;;;;5028007;28;20798;-73
2023/05/04 08:10:01;;;;;;;0.70;0.37;;;;;;;;;;5055217;28;20464;-73
2023/05/04 08:12:35;;;;;;;0.60;0.10;;;;;;;;;;5034835;28;20484;-72
2023/05/04 08:15:06;;;;;;;0.60;0.20;;;14.50;99.90;;;;;;5034094;28;20488;-73
2023/05/04 08:17:36;;;;;;;0.60;0.20;;;14.50;99.90;;;;;;5034346;28;20475;-73
2023/05/04 08:20:04;;;;;;;1.17;0.60;;;14.60;99.90;;;;;;5032464;28;20529;-73
2023/05/04 08:22:33;;;;;;;0.60;0.40;;;14.70;99.90;;;;;;5035641;28;20781;-73
2023/05/04 08:25:01;;;;;;;0.70;0.40;;;14.80;99.90;;;;;;5033664;28;20483;-71
2023/05/04 08:27:32;;;;;;;0.60;0.10;;;14.90;99.90;;;;;;5037041;28;21001;-72
2023/05/04 08:30:00;;;;;;;0.60;0.10;;;14.90;99.90;;;;;;5036221;28;20528;-76
2023/05/04 08:32:31;;;;;;;0.60;0.20;;;15.00;99.90;;;;;;5035324;28;20454;-75
2023/05/04 08:35:00;;;;;;;0.60;0.10;;;15.10;99.90;;;;;;5032981;28;20473;-75
2023/05/04 08:37:27;;;;;;;0.60;0.10;;;15.20;99.90;;;;;;5034249;28;20460;-75
2023/05/04 08:39:55;;;;;;;0.60;0.20;;;15.50;99.90;;;;;;5000210;28;20987;-75
2023/05/04 08:42:28;;;;;;;0.60;0.10;;;15.50;99.90;;;;;;4992708;28;20485;-76
2023/05/04 08:44:57;;;;;;;0.60;0.10;;;15.70;99.90;;;;;;4991995;28;21028;-77
2023/05/04 08:47:28;;;;;;;0.60;0.10;;;;;;;;;;4989884;28;20449;-74
2023/05/04 08:49:57;;;;;;;0.60;0.10;;;15.90;99.90;;;;;;4991778;28;20442;-74
2023/05/04 08:52:26;;;;;;;0.60;0.20;;;16.00;99.90;;;;;;4971813;28;20603;-75
2023/05/04 08:54:55;;;;;;;0.60;0.10;;;16.10;99.90;;;;;;4986375;28;20463;-75
2023/05/04 08:57:24;;;;;;;0.60;0.10;;;16.10;99.90;;;;;;4990792;28;20453;-74
2023/05/04 08:59:58;;;;;;;0.60;0.10;;;16.30;99.90;;;;;;4979600;28;20492;-75
2023/05/04 09:02:27;;;;;;;0.60;0.10;;;16.40;99.90;;;;;;4994378;28;20576;-74
2023/05/04 09:04:58;;;;;;;0.70;0.20;;;16.50;99.90;;;;;;4994453;28;20554;-75
2023/05/04 09:07:29;;;;;;;0.60;0.10;;;;;;;;;;4998260;28;20477;-75
2023/05/04 09:09:57;;;;;;;0.60;0.20;;;16.70;99.90;;;;;;4996062;28;20459;-76
2023/05/04 09:12:26;;;;;;;0.60;0.30;;;16.70;99.90;;;;;;4993771;28;20460;-73
2023/05/04 09:14:54;;;;;;;0.60;0.10;;;16.80;99.90;;;;;;4990241;28;20984;-73
2023/05/04 09:17:25;;;;;;;2.83;2.67;;;16.80;99.90;;;;;;4993419;28;20460;-73
2023/05/04 09:20:00;;;;;;;1.00;0.40;;;16.70;99.90;;;;;;4993068;28;20931;-74
2023/05/04 09:22:30;;;;;;;0.63;0.30;;;16.80;99.90;;;;;;4994144;28;20626;-72
2023/05/04 09:25:09;;;;;;;0.60;0.20;;;17.00;99.90;;;;;;5000161;28;20839;-73
2023/05/04 09:27:37;;;;;;;0.60;0.30;;;17.10;99.90;;;;;;4999762;28;20470;-72
2023/05/04 09:30:06;;;;;;;0.60;0.30;;;17.20;99.90;;;;;;4986297;28;20939;-74
2023/05/04 09:32:37;;;;;;;0.60;0.20;;;17.20;99.90;;;;;;4986153;28;20441;-72
2023/05/04 09:35:06;;;;;;;0.60;0.10;;;17.20;99.90;;;;;;4973758;28;20473;-72
2023/05/04 09:37:43;;;;;;;0.60;0.10;;;17.30;99.90;;;;;;4984165;28;20485;-73
2023/05/04 09:40:12;;;;;;;0.83;0.53;;;17.30;99.90;;;;;;4992338;28;20440;-74
2023/05/04 09:42:40;;;;;;;1.60;1.50;;;17.40;99.90;;;;;;4988956;28;20482;-74
2023/05/04 09:45:09;;;;;;;1.23;1.13;;;17.50;99.90;;;;;;4990626;28;20571;-74
2023/05/04 09:47:38;;;;;;;2.17;2.07;;;17.50;99.90;;;;;;4993270;28;20447;-74
2023/05/04 09:50:14;;;;;;;0.60;0.20;;;17.60;99.90;;;;;;4993082;28;20492;-74
2023/05/04 09:52:48;;;;;;;0.70;0.30;;;17.80;99.90;;;;;;4993631;28;20943;-74
2023/05/04 09:55:18;;;;;;;0.90;0.40;;;17.80;99.90;;;;;;4992809;28;20551;-73
2023/05/04 09:57:47;;;;;;;0.60;0.10;;;18.00;99.90;;;;;;4993150;28;20452;-72
2023/05/04 10:00:16;;;;;;;0.60;0.20;;;18.00;99.90;;;;;;4990915;28;20441;-73
2023/05/04 10:02:45;;;;;;;2.47;2.27;;;18.10;99.90;;;;;;4992093;28;21021;-74
2023/05/04 10:05:16;;;;;;;1.37;1.27;;;18.20;99.60;;;;;;4994424;28;20471;-72
2023/05/04 10:07:45;;;;;;;0.60;0.10;;;18.20;99.60;;;;;;4991483;28;20456;-72
2023/05/04 10:10:15;;;;;;;0.60;0.20;;;18.30;99.90;;;;;;4996024;28;20455;-74
2023/05/04 10:12:45;;;;;;;0.60;0.10;;;;;;;;;;5007858;28;20436;-73
2023/05/04 10:15:16;;;;;;;0.60;0.20;;;18.40;97.00;;;;;;5011741;28;21030;-73
2023/05/04 10:17:57;;;;;;;1.53;1.43;;;18.60;96.50;;;;;;5003167;28;20445;-73
2023/05/04 10:20:43;;;;;;;2.60;1.17;;;18.70;96.10;;;;;;4993493;28;20450;-74
2023/05/04 10:23:45;;;;;;;0.60;0.20;;;18.70;99.90;;;;;;4993015;28;20922;-74
2023/05/04 10:26:38;;;;;;;4.10;1.20;;;18.90;94.30;;;;;;4993371;28;20476;-73
2023/05/04 10:29:13;;;;;;;0.90;0.40;;;19.00;94.90;;;;;;4993299;28;20800;-73
2023/05/04 10:31:42;;;;;;;0.70;0.63;;;19.00;99.70;;;;;;4993711;28;20765;-72
2023/05/04 10:34:10;;;;;;;0.70;0.50;;;19.30;93.70;;;;;;4993846;28;20451;-72
2023/05/04 10:36:39;;;;;;;0.80;0.60;;;19.30;92.40;;;;;;4993480;28;20447;-73
2023/05/04 10:39:19;;;;;;;0.80;0.40;;;19.40;97.70;;;;;;4993243;28;20480;-73
2023/05/04 10:41:59;;;;;;;0.60;0.10;;;19.50;95.80;;;;;;4993181;28;20433;-72
2023/05/04 10:44:27;;;;;;;0.60;0.20;;;19.50;87.90;;;;;;5003452;28;20488;-74
2023/05/04 10:47:03;;;;;;;1.30;0.97;;;19.50;94.50;;;;;;4999378;28;20473;-74
2023/05/04 10:49:31;;;;;;;1.13;0.77;;;19.50;94.70;;;;;;4992964;28;20549;-73
2023/05/04 10:52:10;;;;;;;0.60;0.27;;;19.60;93.80;;;;;;4990688;28;20449;-73
2023/05/04 10:54:39;;;;;;;0.60;0.10;;;19.60;83.50;;;;;;4979842;28;20477;-74
2023/05/04 10:57:09;;;;;;;0.60;0.10;;;19.60;92.80;;;;;;4985062;28;20462;-74
2023/05/04 10:59:38;;;;;;;0.60;0.20;;;19.80;93.40;;;;;;4990042;28;20447;-74
2023/05/04 11:02:08;;;;;;;0.60;0.13;;;19.90;93.50;;;;;;4993940;28;20467;-74
2023/05/04 11:04:36;;;;;;;0.60;0.10;;;;;;;;;;4995718;28;20859;-74
2023/05/04 11:07:07;;;;;;;0.70;0.30;;;20.10;82.70;;;;;;4995924;28;20765;-73
2023/05/04 11:09:36;;;;;;;0.60;0.20;;;20.00;78.60;;;;;;4996245;28;20460;-73
2023/05/04 11:12:05;;;;;;;0.60;0.20;;;20.10;79.20;;;;;;4995366;28;20615;-74
2023/05/04 11:14:36;;;;;;;0.60;0.20;;;20.10;78.20;;;;;;4996116;28;20476;-74
2023/05/04 11:17:08;;;;;;;0.60;0.10;;;20.20;90.50;;;;;;4997755;28;20451;-74
2023/05/04 11:19:54;;;;;;;0.60;0.20;;;20.30;91.20;;;;;;4999961;28;20446;-73
2023/05/04 11:22:22;;;;;;;0.60;0.20;;;20.40;77.70;;;;;;4996888;28;20456;-73
2023/05/04 11:24:50;;;;;;;0.60;0.20;;;20.30;74.70;;;;;;4995974;28;20546;-72
2023/05/04 11:27:22;;;;;;;0.80;0.67;;;20.30;73.90;;;;;;4997646;28;20487;-73
2023/05/04 11:29:55;;;;;;;0.60;0.20;;;20.30;87.70;;;;;;4995812;28;20556;-72
2023/05/04 11:32:36;;;;;;;0.80;0.43;;;20.50;79.30;;;;;;4999355;28;20441;-73
2023/05/04 11:35:05;;;;;;;0.60;0.20;;;20.60;77.60;;;;;;5003154;28;20470;-72
2023/05/04 11:37:39;;;;;;;0.60;0.20;;;20.60;89.50;;;;;;5002163;28;20440;-72
2023/05/04 11:40:12;;;;;;;0.60;0.20;;;20.80;79.20;;;;;;4994949;28;20548;-73
2023/05/04 11:42:41;;;;;;;0.60;0.10;;;20.80;86.30;;;;;;4992556;28;20456;-73
2023/05/04 11:45:14;;;;;;;0.60;0.40;;;20.70;72.10;;;;;;4992224;28;20497;-73
2023/05/04 11:47:43;;;;;;;0.70;0.40;;;20.70;72.10;;;;;;4988997;28;20452;-74
2023/05/04 11:50:12;;;;;;;0.80;0.50;;;20.80;72.30;;;;;;4995135;28;20968;-72
2023/05/04 11:52:41;;;;;;;0.60;0.10;;;20.80;73.70;;;;;;4994782;28;20453;-73
2023/05/04 11:55:10;;;;;;;0.60;0.20;;;20.90;74.60;;;;;;4994477;28;20946;-74
2023/05/04 11:57:39;;;;;;;0.60;0.10;;;20.90;86.80;;;;;;4993025;28;20450;-73
2023/05/04 12:00:08;;;;;;;0.60;0.20;;;21.10;72.00;;;;;;4982054;28;20954;-74
2023/05/04 12:02:38;;;;;;;0.70;0.30;;;21.20;71.00;;;;;;4976356;28;20840;-74
2023/05/04 12:05:12;;;;;;;0.60;0.20;;;21.40;71.10;;;;;;4987902;28;20506;-76
2023/05/04 12:07:40;;;;;;;0.60;0.10;;;21.50;82.20;;;;;;4995839;28;20462;-74
2023/05/04 12:10:09;;;;;;;0.60;0.10;;;21.50;70.70;;;;;;4984712;28;20444;-75
2023/05/04 12:12:37;;;;;;;0.80;0.37;;;21.50;71.80;;;;;;4987401;28;20439;-74
2023/05/04 12:15:05;;;;;;;0.60;0.20;;;21.60;69.90;;;;;;4996220;28;20470;-73
2023/05/04 12:17:42;;;;;;;0.73;0.53;;;21.70;69.40;;;;;;4977357;28;20450;-73
2023/05/04 12:20:11;;;;;;;0.60;0.10;;;21.80;80.60;;;;;;4976021;28;20450;-73
2023/05/04 12:22:39;;;;;;;0.60;0.20;;;21.80;81.00;;;;;;4975613;28;20838;-73
2023/05/04 12:25:09;;;;;;;0.60;0.10;;;21.90;69.50;;;;;;4994007;28;20482;-73
2023/05/04 12:27:41;;;;;;;0.60;0.20;;;21.90;80.00;;;;;;4995391;28;20472;-73
2023/05/04 12:30:10;;;;;;;0.70;0.40;;;21.90;67.10;;;;;;4995286;28;20945;-74
2023/05/04 12:32:38;;;;;;;0.60;0.20;;;21.90;79.80;;;;;;4990190;28;20565;-73
2023/05/04 12:35:08;;;;;;;0.60;0.20;;;22.00;64.30;;;;;;4994301;28;20516;-73
2023/05/04 12:37:36;;;;;;;1.13;0.57;;;22.00;75.60;;;;;;4989488;28;20511;-72
2023/05/04 12:40:06;;;;;;;0.60;0.17;;;22.00;74.20;;;;;;4999369;28;20441;-73
2023/05/04 12:43:04;;;;;;;0.60;0.17;;;22.00;63.60;;;;;;5000238;28;20465;-73
2023/05/04 12:45:32;;;;;;;0.80;0.67;;;22.10;64.40;;;;;;4996942;28;20482;-71
2023/05/04 12:48:00;;;;;;;0.60;0.20;;;22.10;75.10;;;;;;4997030;28;20453;-72
2023/05/04 12:50:29;;;;;;;0.70;0.20;;;22.00;75.50;;;;;;4996326;28;20758;-71
2023/05/04 12:53:02;;;;;;;0.60;0.10;;;22.10;64.60;;;;;;4999186;28;20957;-72
2023/05/04 12:55:31;;;;;;;1.03;0.50;;;22.20;64.30;;;;;;4985494;28;20508;-73
2023/05/04 12:57:58;;;;;;;0.60;0.13;;;22.30;76.30;;;;;;4992654;28;20446;-72
2023/05/04 13:00:26;;;;;;;0.70;0.30;;;22.40;77.30;;;;;;4991769;28;20450;-72
2023/05/04 13:02:54;;;;;;;0.60;0.10;;;22.30;73.90;;;;;;4977464;28;20458;-72
2023/05/04 13:05:22;;;;;;;0.70;0.20;;;22.40;64.70;;;;;;4991880;28;20497;-72
2023/05/04 13:07:52;;;;;;;0.63;0.20;;;22.40;77.40;;;;;;4991382;28;20458;-73
2023/05/04 13:10:20;;;;;;;0.60;0.20;;;22.50;63.90;;;;;;4986650;28;20490;-72
2023/05/04 13:12:48;;;;;;;0.60;0.20;;;22.60;66.00;;;;;;4983044;28;20450;-72
2023/05/04 13:15:16;;;;;;;0.60;0.20;;;22.60;67.60;;;;;;4973019;28;20473;-72
2023/05/04 13:17:44;;;;;;;0.70;0.20;;;22.70;78.50;;;;;;4973620;28;20453;-72
2023/05/04 13:20:13;;;;;;;0.60;0.17;;;22.80;78.20;;;;;;4972866;28;20475;-72
2023/05/04 13:22:41;;;;;;;0.70;0.37;;;22.90;77.20;;;;;;4973523;28;20451;-72
2023/05/04 13:25:10;;;;;;;0.67;0.20;;;22.90;65.80;;;;;;4974124;28;20486;-73
2023/05/04 13:27:38;;;;;;;3.40;2.93;;;22.80;74.70;;;;;;4983517;28;20454;-72
2023/05/04 13:30:07;;;;;;;0.70;0.30;;;22.80;64.30;;;;;;4986698;28;20559;-72
2023/05/04 13:32:35;;;;;;;0.83;0.43;;;22.70;76.10;;;;;;4973490;28;20542;-71
2023/05/04 13:35:03;;;;;;;0.80;0.40;;;22.80;63.90;;;;;;4995376;28;20653;-71
2023/05/04 13:37:32;;;;;;;0.70;0.20;;;22.80;64.50;;;;;;5001154;28;20453;-72
2023/05/04 13:40:00;;;;;;;0.60;0.20;;;22.90;64.10;;;;;;5010207;28;20446;-72
2023/05/04 13:42:29;;;;;;;0.60;0.10;;;22.90;64.30;;;;;;5026268;28;20445;-74
2023/05/04 13:44:57;;;;;;;0.70;0.20;;;23.00;64.40;;;;;;4996760;28;20490;-73
2023/05/04 13:47:26;;;;;;;0.70;0.20;;;;;;;;;;4991734;28;20833;-73
2023/05/04 13:49:54;;;;;;;0.90;0.50;;;23.10;63.20;;;;;;4997482;28;20490;-73
2023/05/04 13:52:21;;;;;;;0.60;0.10;;;23.00;73.10;;;;;;5009407;28;20455;-73
2023/05/04 13:54:49;;;;;;;0.70;0.10;;;23.10;66.60;;;;;;5007438;28;20489;-73
2023/05/04 13:57:17;;;;;;;0.70;0.20;;;23.10;75.50;;;;;;5004316;28;20443;-71
2023/05/04 13:59:46;;;;;;;0.70;0.10;;;;;;;;;;5007115;28;20496;-73
2023/05/04 14:02:32;;;;;;;0.67;0.10;;;23.30;62.70;;;;;;4983282;28;20456;-73
2023/05/04 14:05:01;;;;;;;0.80;0.40;;;23.30;63.40;;;;;;4985954;28;20578;-74
2023/05/04 14:07:29;;;;;;;3.77;1.17;;;23.30;89.30;;;;;;4989027;28;20450;-72
2023/05/04 14:09:59;;;;;;;0.80;0.30;;;23.30;76.40;;;;;;4997354;28;21014;-74
2023/05/04 14:12:27;;;;;;;0.70;0.17;;;23.30;75.60;;;;;;4990691;28;20956;-73
2023/05/04 14:14:57;;;;;;;3.17;0.80;;;23.30;63.10;;;;;;4999471;28;20487;-73
2023/05/04 14:17:26;;;;;;;0.70;0.23;;;23.40;61.50;;;;;;4999280;28;20518;-73
2023/05/04 14:19:55;;;;;;;1.10;0.40;;;;;;;;;;4997488;28;20441;-76
2023/05/04 14:22:23;;;;;;;0.67;0.13;;;23.30;62.70;;;;;;5012229;28;20516;-76
2023/05/04 14:24:51;;;;;;;0.70;0.27;;;23.40;61.80;;;;;;5003484;28;20478;-74
2023/05/04 14:27:19;;;;;;;0.70;0.10;;;23.50;61.20;;;;;;5008136;28;20473;-76
2023/05/04 14:29:47;;;;;;;0.70;0.20;;;23.50;74.60;;;;;;5007201;28;20459;-76
2023/05/04 14:32:18;;;;;;;1.20;0.60;;;23.60;64.40;;;;;;5010105;28;20444;-75
2023/05/04 14:34:46;;;;;;;0.70;0.10;;;23.60;62.10;;;;;;4993433;28;20478;-76
2023/05/04 14:37:14;;;;;;;0.70;0.20;;;23.80;64.50;;;;;;5010133;28;20443;-74
2023/05/04 14:39:43;;;;;;;0.70;0.10;;;23.90;61.50;;;;;;5010788;28;20524;-76
2023/05/04 14:42:11;;;;;;;0.70;0.10;;;24.10;63.80;;;;;;4992137;28;20465;-76
2023/05/04 14:44:39;;;;;;;0.70;0.20;;;24.10;62.70;;;;;;4981744;28;20520;-76
2023/05/04 14:47:07;;;;;;;0.70;0.20;;;24.10;88.40;;;;;;5003433;28;20485;-80
2023/05/04 14:49:41;;;;;;;0.70;0.30;;;24.20;76.00;;;;;;5008922;28;20479;-77
2023/05/04 14:52:10;;;;;;;0.70;0.30;;;24.30;73.20;;;;;;5005424;28;20436;-79
2023/05/04 14:54:38;;;;;;;0.70;0.20;;;24.30;63.70;;;;;;5005860;28;20491;-77
2023/05/04 14:57:07;;;;;;;0.70;0.10;;;24.30;60.80;;;;;;5003012;28;20450;-77
2023/05/04 14:59:36;;;;;;;0.80;0.30;;;24.40;57.10;;;;;;5005500;28;20444;-79
2023/05/04 15:02:06;;;;;;;0.70;0.10;;;24.40;68.60;;;;;;4999254;28;20487;-79
2023/05/04 15:04:37;;;;;;;0.70;0.10;;;;;;;;;;5006577;28;20471;-83
2023/05/04 15:07:05;;;;;;;0.70;0.20;;;;;;;;;;5000957;28;20476;-75
2023/05/04 15:09:33;;;;;;;0.70;0.20;;;24.50;57.50;;;;;;5001065;28;20479;-77
2023/05/04 15:12:03;;;;;;;0.70;0.10;;;24.60;55.00;;;;;;5003810;28;20460;-78
2023/05/04 15:14:31;;;;;;;0.70;0.10;;;24.70;54.10;;;;;;5006615;28;20464;-78
2023/05/04 15:17:01;;;;;;;0.70;0.20;;;24.80;55.70;;;;;;5008101;28;20437;-78
2023/05/04 15:19:29;;;;;;;0.70;0.20;;;24.80;53.30;;;;;;5010125;28;20444;-76
2023/05/04 15:21:58;;;;;;;0.70;0.20;;;24.80;53.20;;;;;;5007474;28;20458;-77
2023/05/04 15:24:26;;;;;;;0.80;0.40;;;25.00;56.40;;;;;;5001173;28;20475;-79
2023/05/04 15:26:54;;;;;;;0.70;0.20;;;25.00;54.80;;;;;;5001190;28;20581;-78
2023/05/04 15:29:22;;;;;;;0.70;0.20;;;25.10;64.70;;;;;;4999788;28;20449;-78
2023/05/04 15:31:50;;;;;;;0.70;0.20;;;25.20;54.30;;;;;;4999103;28;21154;-78
2023/05/04 15:34:18;;;;;;;4.87;2.50;;;25.20;51.60;;;;;;5003239;28;20494;-79
2023/05/04 15:36:46;;;;;;;0.70;0.20;;;25.20;62.20;;;;;;5002275;28;20449;-79
2023/05/04 15:39:16;;;;;;;0.70;0.10;;;25.10;50.10;;;;;;5001467;28;20448;-78
2023/05/04 15:41:43;;;;;;;0.70;0.20;;;25.10;62.00;;;;;;4998247;28;20448;-78
2023/05/04 15:44:11;;;;;;;0.70;0.20;;;25.10;52.00;;;;;;4999543;28;20535;-79
2023/05/04 15:46:39;;;;;;;0.70;0.20;;;25.10;62.20;;;;;;5002294;28;20531;-79
2023/05/04 15:49:08;;;;;;;0.70;0.20;;;25.30;63.70;;;;;;4998376;28;20869;-78
2023/05/04 15:51:36;;;;;;;1.07;0.37;;;25.60;50.00;;;;;;5000190;28;20451;-79
2023/05/04 15:54:04;;;;;;;0.70;0.20;;;25.80;48.80;;;;;;5000793;28;20444;-77
2023/05/04 15:56:34;;;;;;;0.70;0.10;;;25.70;59.20;;;;;;4997957;28;20441;-78
2023/05/04 15:59:02;;;;;;;0.70;0.10;;;25.70;59.20;;;;;;4998183;28;20456;-78
2023/05/04 16:01:30;;;;;;;1.63;1.07;;;26.00;48.90;;;;;;4998336;28;20515;-77
2023/05/04 16:03:59;;;;;;;0.70;0.20;;;25.90;47.60;;;;;;4998447;28;20866;-77
2023/05/04 16:06:27;;;;;;;1.10;0.57;;;25.90;48.30;;;;;;4999001;28;20489;-79
2023/05/04 16:08:57;;;;;;;0.70;0.10;;;26.00;50.50;;;;;;5001327;28;20445;-78
2023/05/04 16:11:25;;;;;;;0.70;0.20;;;26.10;59.10;;;;;;5000948;28;20533;-78
2023/05/04 16:13:54;;;;;;;0.70;0.20;;;26.40;48.70;;;;;;5000048;28;20451;-78
2023/05/04 16:16:24;;;;;;;0.70;0.20;;;26.40;44.60;;;;;;4996115;28;21007;-80
2023/05/04 16:18:52;;;;;;;0.70;0.30;;;26.40;44.80;;;;;;4999611;28;20485;-80
2023/05/04 16:21:20;;;;;;;0.70;0.20;;;26.50;57.20;;;;;;5001994;28;20938;-78
2023/05/04 16:23:48;;;;;;;0.70;0.20;;;26.70;44.30;;;;;;4998578;28;20957;-79
2023/05/04 16:26:19;;;;;;;0.70;0.13;;;26.90;46.30;;;;;;4996990;28;20977;-78
2023/05/04 16:28:55;;;;;;;0.70;0.20;;;27.10;42.10;;;;;;4996683;28;20468;-79
2023/05/04 16:31:23;;;;;;;0.70;0.20;;;27.10;39.60;;;;;;4997940;28;20973;-78
2023/05/04 16:33:52;;;;;;;0.70;0.20;;;27.20;39.50;;;;;;4987544;28;20466;-79
2023/05/04 16:36:20;;;;;;;0.70;0.20;;;27.10;36.70;;;;;;4997095;28;20473;-79
2023/05/04 16:38:48;;;;;;;0.70;0.10;;;27.00;48.90;;;;;;4995930;28;20552;-79
2023/05/04 16:41:17;;;;;;;0.70;0.10;;;27.30;38.20;;;;;;4989319;28;20461;-79
2023/05/04 16:43:47;;;;;;;0.70;0.20;;;27.40;33.40;;;;;;4993625;28;20457;-79
2023/05/04 16:46:17;;;;;;;0.70;0.17;;;27.30;33.90;;;;;;5008518;28;20483;-78
2023/05/04 16:48:45;;;;;;;0.70;0.20;;;27.30;43.40;;;;;;5013110;28;20464;-79
2023/05/04 16:51:12;;;;;;;0.70;0.20;;;27.20;45.20;;;;;;5000490;28;20825;-79
2023/05/04 16:53:47;;;;;;;0.70;0.20;;;;;;;;;;4998800;28;20452;-80
2023/05/04 16:56:21;;;;;;;0.70;0.20;;;;;;;;;;4997988;28;20539;-81
2023/05/04 16:58:52;;;;;;;0.70;0.20;;;27.50;30.00;;;;;;4998393;28;20488;-80
2023/05/04 17:01:22;;;;;;;1.17;0.67;;;;;;;;;;4997741;28;20524;-79
2023/05/04 17:03:50;;;;;;;0.70;0.20;;;27.20;28.60;;;;;;4995927;28;20521;-80
2023/05/04 17:06:18;;;;;;;0.70;0.20;;;27.00;28.60;;;;;;5009364;28;20476;-79